Time;durP1;ratioP1;P1;durP2;ratioP2;P2;SDS_P1;SDS_P2;PMS_P1;PMS_P2;Temp;Humidity;BMP_temperature;BMP_pressure;BME280_temperature;BME280_humidity;BME280_pressure;Samples;Min_cycle;Max_cycle;Signal;HPM_P1;HPM_P2
2022/03/21 00:01:48;;;;;;;19.90;10.35;;;;;;;;;;5051772;28;20025;-69
2022/03/21 00:04:14;;;;;;;22.08;11.55;;;;;;;;;;5055691;28;20037;-69
2022/03/21 00:06:40;;;;;;;22.95;12.27;;;;;;;;;;5056014;28;20025;-69
2022/03/21 00:09:06;;;;;;;24.80;11.75;;;;;;;;;;5058361;28;20033;-70
2022/03/21 00:11:33;;;;;;;25.42;12.13;;;;;;;;;;5060845;28;20493;-70
2022/03/21 00:13:59;;;;;;;25.73;12.18;;;;;;;;;;5060314;28;20025;-70
2022/03/21 00:16:26;;;;;;;22.33;12.05;;;;;;;;;;5059216;28;20021;-70
2022/03/21 00:18:52;;;;;;;26.30;12.00;;;;;;;;;;5060384;28;20026;-70
2022/03/21 00:21:19;;;;;;;20.75;11.00;;;;;;;;;;5062691;28;20025;-72
2022/03/21 00:23:45;;;;;;;23.17;11.52;;;;;;;;;;5062214;28;20033;-71
2022/03/21 00:26:11;;;;;;;16.88;9.75;;;;;;;;;;5062339;28;20037;-70
2022/03/21 00:28:37;;;;;;;20.02;10.70;;;;;;;;;;5061601;28;20097;-71
2022/03/21 00:31:04;;;;;;;24.10;12.70;;;;;;;;;;5055774;28;20415;-70
2022/03/21 00:33:30;;;;;;;22.92;11.30;;;;;;;;;;5058102;28;20219;-70
2022/03/21 00:35:58;;;;;;;22.63;12.13;;;4.40;43.80;;;;;;5062519;28;20056;-69
2022/03/21 00:38:24;;;;;;;21.17;11.67;;;4.40;44.50;;;;;;5056491;28;20029;-69
2022/03/21 00:40:50;;;;;;;22.13;11.37;;;4.40;44.60;;;;;;5054453;28;20032;-70
2022/03/21 00:43:19;;;;;;;26.87;12.07;;;4.30;44.50;;;;;;5058324;28;20516;-70
2022/03/21 00:45:46;;;;;;;25.30;11.93;;;4.30;44.80;;;;;;5055775;28;20512;-70
2022/03/21 00:48:12;;;;;;;22.63;11.63;;;4.30;44.90;;;;;;5058733;28;20425;-69
2022/03/21 00:50:37;;;;;;;27.80;12.27;;;4.30;44.70;;;;;;5060418;28;20311;-69
2022/03/21 00:53:04;;;;;;;20.03;11.13;;;4.30;44.90;;;;;;5061201;28;20053;-69
2022/03/21 00:55:30;;;;;;;31.03;15.13;;;4.20;45.00;;;;;;5055486;28;20029;-69
2022/03/21 00:57:57;;;;;;;20.83;11.20;;;4.20;45.00;;;;;;5052804;28;20480;-70
2022/03/21 01:00:25;;;;;;;22.17;12.63;;;4.20;45.00;;;;;;5060735;28;20060;-70
2022/03/21 01:02:51;;;;;;;21.83;11.70;;;4.20;45.10;;;;;;5053529;28;20037;-69
2022/03/21 01:05:17;;;;;;;21.53;11.90;;;4.10;45.80;;;;;;5054841;28;20037;-70
2022/03/21 01:07:43;;;;;;;23.07;13.23;;;4.10;45.40;;;;;;5055176;28;20033;-69
2022/03/21 01:10:13;;;;;;;21.67;12.13;;;4.10;45.10;;;;;;5071253;22;20064;-66
2022/03/21 01:12:40;;;;;;;23.13;12.27;;;4.10;45.30;;;;;;5018392;28;20037;-65
2022/03/21 01:15:07;;;;;;;22.73;12.20;;;4.20;45.10;;;;;;5012928;28;20049;-65
2022/03/21 01:17:33;;;;;;;19.17;11.57;;;4.20;45.00;;;;;;5014558;28;20153;-63
2022/03/21 01:19:58;;;;;;;21.70;11.20;;;4.00;45.20;;;;;;5013108;28;20069;-65
2022/03/21 01:22:24;;;;;;;24.37;11.90;;;4.00;45.30;;;;;;5014360;28;20033;-65
2022/03/21 01:24:49;;;;;;;21.97;12.03;;;4.00;45.30;;;;;;5013145;28;20030;-65
2022/03/21 01:27:15;;;;;;;20.57;11.17;;;4.00;45.30;;;;;;5012156;28;20026;-65
2022/03/21 01:29:41;;;;;;;20.77;11.03;;;4.00;45.30;;;;;;5014789;28;20034;-66
2022/03/21 01:32:07;;;;;;;22.47;10.90;;;4.00;45.60;;;;;;5012517;28;20465;-66
2022/03/21 01:34:33;;;;;;;24.53;11.87;;;3.90;45.70;;;;;;5012534;28;20072;-66
2022/03/21 01:36:58;;;;;;;24.50;12.33;;;3.90;45.90;;;;;;5027517;28;20022;-65
2022/03/21 01:39:24;;;;;;;21.57;10.93;;;3.90;46.10;;;;;;5022513;28;20026;-66
2022/03/21 01:41:50;;;;;;;20.03;9.93;;;3.80;45.90;;;;;;5012498;28;20034;-67
2022/03/21 01:44:17;;;;;;;25.03;10.60;;;3.80;45.90;;;;;;5015846;28;20325;-66
2022/03/21 01:46:47;;;;;;;19.67;11.17;;;3.80;45.90;;;;;;5012422;28;20029;-65
2022/03/21 01:49:13;;;;;;;23.80;11.13;;;3.70;45.80;;;;;;5010733;28;20044;-66
2022/03/21 01:51:41;;;;;;;23.77;11.67;;;3.60;46.20;;;;;;5012655;28;20040;-65
2022/03/21 01:56:51;;;;;;;22.65;11.32;;;3.60;46.20;;;;;;5015461;28;20080;-65
2022/03/21 01:59:19;;;;;;;21.83;11.10;;;3.60;46.30;;;;;;5022236;28;20029;-66
2022/03/21 02:01:45;;;;;;;19.53;9.63;;;3.60;46.40;;;;;;5010498;28;20061;-65
2022/03/21 02:04:11;;;;;;;19.90;11.13;;;3.60;46.20;;;;;;5012067;28;20490;-66
2022/03/21 02:06:37;;;;;;;23.30;12.27;;;3.60;46.20;;;;;;5012096;28;20030;-66
2022/03/21 02:09:05;;;;;;;20.93;11.63;;;3.60;46.40;;;;;;5011354;28;20092;-65
2022/03/21 02:11:32;;;;;;;18.97;10.80;;;3.50;46.30;;;;;;5012641;28;20083;-65
2022/03/21 02:13:59;;;;;;;21.10;11.10;;;3.50;46.50;;;;;;5012633;28;20101;-65
2022/03/21 02:16:30;;;;;;;21.43;11.47;;;3.60;46.40;;;;;;5010740;28;20026;-66
2022/03/21 02:18:59;;;;;;;21.73;11.80;;;3.60;46.30;;;;;;5012012;28;20033;-65
2022/03/21 02:21:51;;;;;;;31.03;15.00;;;3.60;46.30;;;;;;5012185;28;20469;-65
2022/03/21 02:24:36;;;;;;;39.40;15.87;;;3.50;46.30;;;;;;5002283;28;20465;-66
2022/03/21 02:27:02;;;;;;;24.98;11.95;;;3.50;46.50;;;;;;5006052;28;20030;-66
2022/03/21 02:29:30;;;;;;;23.97;12.23;;;3.50;46.50;;;;;;5007971;28;20030;-66
2022/03/21 02:31:56;;;;;;;25.30;12.33;;;3.50;46.60;;;;;;5012125;28;20033;-64
2022/03/21 02:34:26;;;;;;;21.93;11.53;;;3.40;46.70;;;;;;5012168;28;20030;-66
2022/03/21 02:36:55;;;;;;;24.03;11.60;;;3.40;46.80;;;;;;5011696;28;20030;-67
2022/03/21 02:39:22;;;;;;;22.20;11.80;;;3.40;47.00;;;;;;5011965;28;20029;-66
2022/03/21 02:41:48;;;;;;;;;;;3.30;47.30;;;;;;5006850;28;20486;-65
2022/03/21 02:44:13;;;;;;;;;;;3.20;47.30;;;;;;5012442;28;19923;-65
2022/03/21 02:46:39;;;;;;;;;;;;;;;;;;5012366;28;19909;-65
2022/03/21 02:49:06;;;;;;;;;;;;;;;;;;5011964;28;19959;-65
2022/03/21 02:51:32;;;;;;;;;;;;;;;;;;5026884;28;19952;-65
2022/03/21 02:53:58;;;;;;;;;;;;;;;;;;5018891;28;19917;-66
2022/03/21 02:56:24;;;;;;;;;;;;;;;;;;5030354;28;19974;-66
2022/03/21 02:58:49;;;;;;;;;;;;;;;;;;5027554;28;20347;-67
2022/03/21 03:01:16;;;;;;;;;;;3.00;47.40;;;;;;5014648;28;19914;-64
2022/03/21 03:03:42;;;;;;;;;;;3.00;48.30;;;;;;5017120;28;20396;-65
2022/03/21 03:06:08;;;;;;;;;;;2.90;47.90;;;;;;5015904;28;20008;-65
2022/03/21 03:08:33;;;;;;;;;;;2.90;48.10;;;;;;5012238;28;20259;-65
2022/03/21 03:10:59;;;;;;;;;;;2.90;48.10;;;;;;5012881;28;20370;-64
2022/03/21 03:13:24;;;;;;;;;;;2.90;48.00;;;;;;5029093;28;19917;-66
2022/03/21 03:15:50;;;;;;;;;;;2.90;48.20;;;;;;5012680;28;20487;-65
2022/03/21 03:18:15;;;;;;;;;;;2.90;48.40;;;;;;5012655;28;19921;-65
2022/03/21 03:20:48;;;;;;;;;;;2.80;48.30;;;;;;5012572;28;20297;-65
2022/03/21 03:23:13;;;;;;;;;;;2.70;48.40;;;;;;5010584;28;19914;-65
2022/03/21 03:25:39;;;;;;;;;;;2.70;48.70;;;;;;5011210;28;19914;-64
2022/03/21 03:28:05;;;;;;;;;;;2.70;48.60;;;;;;5015499;28;19952;-64
2022/03/21 03:30:30;;;;;;;;;;;2.70;48.70;;;;;;5014998;28;19921;-65
2022/03/21 03:32:55;;;;;;;;;;;2.60;48.90;;;;;;5015659;28;20273;-65
2022/03/21 03:35:21;;;;;;;;;;;2.60;48.90;;;;;;5017071;28;19914;-65
2022/03/21 03:37:46;;;;;;;;;;;2.60;49.00;;;;;;5019655;28;19918;-64
2022/03/21 03:40:12;;;;;;;;;;;2.50;49.20;;;;;;5020478;28;19913;-65
2022/03/21 03:42:37;;;;;;;;;;;2.60;49.30;;;;;;5022084;28;19917;-65
2022/03/21 03:45:03;;;;;;;;;;;2.50;49.30;;;;;;5014690;28;20488;-65
2022/03/21 03:47:29;;;;;;;;;;;2.50;49.50;;;;;;5015673;28;20035;-65
2022/03/21 03:49:54;;;;;;;;;;;2.50;49.40;;;;;;5011963;28;19924;-66
2022/03/21 03:52:20;;;;;;;;;;;2.50;49.60;;;;;;5015139;28;19918;-66
2022/03/21 03:54:45;;;;;;;;;;;2.50;49.60;;;;;;5018230;28;19962;-65
2022/03/21 03:57:11;;;;;;;;;;;2.40;49.60;;;;;;5019999;28;19909;-66
2022/03/21 03:59:37;;;;;;;;;;;2.40;49.80;;;;;;5019722;28;19931;-66
2022/03/21 04:02:02;;;;;;;;;;;2.40;50.10;;;;;;5018483;28;19913;-66
2022/03/21 04:04:28;;;;;;;;;;;2.40;49.90;;;;;;5020805;28;19952;-66
2022/03/21 04:06:53;;;;;;;;;;;2.40;49.90;;;;;;5020719;28;19913;-66
2022/03/21 04:09:19;;;;;;;;;;;2.40;49.90;;;;;;5014836;28;20033;-65
2022/03/21 04:11:44;;;;;;;;;;;2.40;49.80;;;;;;5014847;28;20279;-64
2022/03/21 04:14:09;;;;;;;;;;;2.30;49.80;;;;;;5014820;28;19910;-66
2022/03/21 04:16:36;;;;;;;;;;;2.30;49.80;;;;;;5014087;28;19956;-66
2022/03/21 04:19:02;;;;;;;;;;;2.30;50.10;;;;;;5014564;28;20342;-64
2022/03/21 04:21:27;;;;;;;;;;;2.20;50.20;;;;;;5016193;28;19925;-64
2022/03/21 04:23:53;;;;;;;;;;;2.20;50.30;;;;;;5023448;28;20028;-65
2022/03/21 04:26:19;;;;;;;;;;;2.20;50.10;;;;;;5023332;28;19909;-65
2022/03/21 04:28:44;;;;;;;;;;;2.20;49.90;;;;;;5030267;28;20001;-63
2022/03/21 04:31:10;;;;;;;;;;;2.20;49.90;;;;;;5026687;28;19958;-63
2022/03/21 04:33:35;;;;;;;;;;;2.20;50.20;;;;;;5021870;28;20350;-64
2022/03/21 04:36:01;;;;;;;;;;;2.20;50.00;;;;;;5020651;28;20016;-65
2022/03/21 04:38:26;;;;;;;;;;;2.20;50.10;;;;;;5021352;28;20286;-65
2022/03/21 04:40:52;;;;;;;;;;;2.10;50.20;;;;;;5012888;28;19936;-65
2022/03/21 04:43:18;;;;;;;;;;;2.10;50.30;;;;;;5012973;28;19917;-65
2022/03/21 04:45:44;;;;;;;;;;;2.10;50.20;;;;;;5013823;28;19910;-66
2022/03/21 04:48:10;;;;;;;;;;;2.10;50.40;;;;;;5018917;28;19920;-65
2022/03/21 04:50:35;;;;;;;;;;;2.00;50.40;;;;;;5021636;28;19918;-66
2022/03/21 04:53:01;;;;;;;;;;;;;;;;;;5016315;28;19917;-65
2022/03/21 04:55:28;;;;;;;35.22;17.60;;;1.90;50.30;;;;;;4994291;28;20399;-66
2022/03/21 04:57:54;;;;;;;36.97;15.83;;;2.00;50.70;;;;;;5003663;28;20113;-66
2022/03/21 05:00:20;;;;;;;33.30;15.00;;;1.90;50.70;;;;;;5012840;28;20060;-66
2022/03/21 05:02:45;;;;;;;30.27;14.60;;;1.80;50.90;;;;;;5011720;28;20022;-65
2022/03/21 05:05:11;;;;;;;33.83;14.90;;;1.80;51.00;;;;;;5011074;28;20026;-67
2022/03/21 05:07:42;;;;;;;33.03;14.40;;;1.80;51.10;;;;;;5012108;28;20037;-69
2022/03/21 05:10:09;;;;;;;29.13;13.53;;;1.80;51.10;;;;;;5014626;28;20033;-68
2022/03/21 05:12:36;;;;;;;31.13;14.00;;;1.90;51.30;;;;;;5013083;28;20394;-68
2022/03/21 05:15:04;;;;;;;32.07;14.43;;;1.80;50.90;;;;;;5012894;28;20022;-67
2022/03/21 05:17:30;;;;;;;29.20;14.23;;;1.80;50.90;;;;;;5012373;28;20030;-68
2022/03/21 05:19:56;;;;;;;32.07;15.00;;;1.80;50.90;;;;;;5012593;28;20029;-68
2022/03/21 05:22:22;;;;;;;29.27;14.77;;;1.80;50.80;;;;;;5011380;28;20049;-65
2022/03/21 05:31:57;;;;;;;33.35;19.40;;;;;;;;;;5083261;28;20105;-69
2022/03/21 05:37:07;;;;;;;32.17;18.50;;;;;;;;;;5087721;28;20241;-70
2022/03/21 05:39:33;;;;;;;35.10;19.80;;;;;;;;;;5090888;28;20032;-69
2022/03/21 05:41:59;;;;;;;31.40;17.53;;;;;;;;;;5107022;22;20068;-66
2022/03/21 05:44:26;;;;;;;36.07;19.43;;;;;;;;;;5077269;28;20027;-66
2022/03/21 05:46:52;;;;;;;33.70;18.53;;;;;;;;;;5080628;28;20032;-64
2022/03/21 05:49:18;;;;;;;35.30;18.77;;;;;;;;;;5082248;28;20400;-66
2022/03/21 05:51:44;;;;;;;30.93;17.77;;;;;;;;;;5088431;28;20467;-67
2022/03/21 05:54:11;;;;;;;33.00;18.83;;;;;;;;;;5092413;28;20066;-66
2022/03/21 05:56:38;;;;;;;30.67;18.03;;;;;;;;;;5093479;28;20036;-68
2022/03/21 06:01:50;;;;;;;29.02;17.58;;;;;;;;;;5083229;28;20094;-68
2022/03/21 06:04:16;;;;;;;31.93;18.63;;;;;;;;;;5091460;28;20162;-67
2022/03/21 06:06:43;;;;;;;36.07;19.30;;;;;;;;;;5091204;28;20031;-66
2022/03/21 06:09:09;;;;;;;30.60;18.50;;;;;;;;;;5087289;28;20089;-67
2022/03/21 06:11:36;;;;;;;33.43;18.50;;;;;;;;;;5087173;28;20021;-68
2022/03/21 06:14:03;;;;;;;36.13;20.07;;;;;;;;;;5087932;28;20499;-67
2022/03/21 06:16:29;;;;;;;32.43;19.17;;;;;;;;;;5088990;28;20021;-68
2022/03/21 06:18:55;;;;;;;35.03;19.77;;;;;;;;;;5088354;28;20443;-67
2022/03/21 06:21:21;;;;;;;33.40;19.43;;;;;;;;;;5086773;28;20138;-68
2022/03/21 06:23:47;;;;;;;33.80;19.37;;;;;;;;;;5085495;28;20024;-66
2022/03/21 06:26:14;;;;;;;34.27;20.00;;;;;;;;;;5082570;28;20353;-67
2022/03/21 06:28:40;;;;;;;35.33;19.97;;;;;;;;;;5080654;28;20058;-67
2022/03/21 06:31:06;;;;;;;39.33;20.23;;;;;;;;;;5086265;28;20048;-66
2022/03/21 06:33:32;;;;;;;31.83;19.33;;;;;;;;;;5086686;28;20024;-69
2022/03/21 06:36:00;;;;;;;32.07;19.67;;;;;;;;;;5086222;28;20357;-66
2022/03/21 06:38:26;;;;;;;37.30;20.03;;;;;;;;;;5084627;28;20085;-66
2022/03/21 06:40:52;;;;;;;34.63;19.67;;;;;;;;;;5074287;28;20036;-65
2022/03/21 06:43:20;;;;;;;44.10;23.20;;;;;;;;;;5073530;28;20033;-66
2022/03/21 06:45:54;;;;;;;32.63;20.40;;;;;;;;;;5072479;28;20117;-67
2022/03/21 06:48:21;;;;;;;35.83;21.33;;;;;;;;;;5067924;28;20400;-67
2022/03/21 06:50:47;;;;;;;31.77;20.23;;;;;;;;;;5067044;28;20024;-67
2022/03/21 06:53:13;;;;;;;33.03;20.98;;;;;;;;;;5075794;28;20394;-66
2022/03/21 06:55:39;;;;;;;35.83;21.67;;;;;;;;;;5076066;28;20099;-68
2022/03/21 06:58:08;;;;;;;29.50;20.45;;;;;;;;;;5069383;28;20446;-67
2022/03/21 07:00:34;;;;;;;33.15;22.25;;;;;;;;;;5071615;28;20033;-67
2022/03/21 07:03:00;;;;;;;32.58;21.88;;;;;;;;;;5067959;28;20063;-66
2022/03/21 07:05:28;;;;;;;33.22;21.30;;;;;;;;;;5073444;28;20086;-67
2022/03/21 07:07:54;;;;;;;34.05;20.88;;;;;;;;;;5072372;28;20036;-68
2022/03/21 07:10:20;;;;;;;34.40;21.17;;;;;;;;;;5072954;28;20097;-68
2022/03/21 07:12:46;;;;;;;30.52;20.30;;;;;;;;;;5057663;28;20025;-67
2022/03/21 07:15:12;;;;;;;28.77;19.80;;;;;;;;;;5071097;28;20025;-67
2022/03/21 07:17:42;;;;;;;31.15;19.55;;;;;;;;;;5068930;28;20115;-68
2022/03/21 07:20:08;;;;;;;30.05;18.50;;;;;;;;;;5072186;28;20021;-67
2022/03/21 07:22:34;;;;;;;29.42;18.00;;;;;;;;;;5058582;28;20033;-67
2022/03/21 07:25:00;;;;;;;26.08;17.65;;;;;;;;;;5069754;28;20066;-68
2022/03/21 07:27:26;;;;;;;24.92;17.40;;;;;;;;;;5070892;28;20040;-67
2022/03/21 07:29:52;;;;;;;25.52;16.95;;;;;;;;;;5071717;28;20032;-69
2022/03/21 07:32:18;;;;;;;23.35;16.80;;;;;;;;;;5064310;28;20038;-67
2022/03/21 07:34:44;;;;;;;25.95;17.27;;;;;;;;;;5072925;28;20453;-66
2022/03/21 07:37:10;;;;;;;25.08;16.50;;;;;;;;;;5072257;28;20511;-67
2022/03/21 07:39:37;;;;;;;26.23;16.58;;;;;;;;;;5070148;28;20040;-67
2022/03/21 07:42:04;;;;;;;24.52;16.05;;;;;;;;;;5063437;28;20044;-67
2022/03/21 07:47:20;;;;;;;24.48;16.75;;;;;;;;;;5076878;28;20051;-67
2022/03/21 07:49:46;;;;;;;20.35;15.68;;;;;;;;;;5072390;28;20020;-68
2022/03/21 07:52:13;;;;;;;23.98;16.17;;;;;;;;;;5072619;28;20556;-68
2022/03/21 07:54:42;;;;;;;26.70;17.13;;;;;;;;;;5082924;28;20052;-68
2022/03/21 07:57:08;;;;;;;22.58;15.70;;;;;;;;;;5074967;28;20267;-69
2022/03/21 07:59:35;;;;;;;23.42;16.45;;;;;;;;;;5070805;28;20024;-68
2022/03/21 08:02:03;;;;;;;19.77;15.02;;;;;;;;;;5068389;28;20412;-68
2022/03/21 08:04:31;;;;;;;22.45;15.27;;;;;;;;;;5075720;28;20092;-71
2022/03/21 08:06:59;;;;;;;21.88;15.68;;;;;;;;;;5056540;28;20112;-70
2022/03/21 08:09:27;;;;;;;20.60;16.13;;;;;;;;;;5072625;28;20017;-70
2022/03/21 08:11:54;;;;;;;21.10;15.07;;;;;;;;;;5068283;28;20089;-67
2022/03/21 08:14:20;;;;;;;21.08;14.60;;;;;;;;;;5071051;28;20020;-67
2022/03/21 08:16:46;;;;;;;19.50;14.60;;;;;;;;;;5071580;28;20028;-72
2022/03/21 08:19:12;;;;;;;23.00;16.15;;;;;;;;;;5073407;28;20755;-70
2022/03/21 08:21:37;;;;;;;19.75;14.98;;;2.70;60.10;;;;;;5071381;28;20035;-69
2022/03/21 08:24:04;;;;;;;21.02;15.65;;;20.50;16.80;;;;;;5066416;28;20086;-69
2022/03/21 08:26:30;;;;;;;18.80;14.70;;;;;;;;;;5070897;28;20029;-69
2022/03/21 08:28:55;;;;;;;20.38;15.45;;;18.70;18.10;;;;;;5069456;28;20488;-69
2022/03/21 08:31:21;;;;;;;22.25;13.23;;;18.50;18.40;;;;;;5069420;28;20078;-69
2022/03/21 08:33:47;;;;;;;17.63;13.32;;;13.90;22.80;;;;;;5072700;28;20025;-68
2022/03/21 08:36:13;;;;;;;18.48;13.82;;;11.90;25.80;;;;;;5070663;28;20044;-69
2022/03/21 08:38:40;;;;;;;19.55;13.35;;;;;;;;;;5069312;28;20032;-69
2022/03/21 08:41:06;;;;;;;19.38;13.45;;;;;;;;;;5064928;28;20033;-69
2022/03/21 08:43:32;;;;;;;15.93;12.63;;;11.70;26.80;;;;;;5060984;28;20090;-70
2022/03/21 08:45:58;;;;;;;19.33;13.30;;;;;;;;;;5070093;28;20028;-69
2022/03/21 08:49:23;;;;;;;20.20;13.52;;;21.50;17.20;;;;;;5069127;28;20346;-70
2022/03/21 08:51:10;;;;;;;17.27;13.20;;;;;;;;;;5066900;28;20028;-68
2022/03/21 08:53:36;;;;;;;20.20;13.20;;;20.60;15.00;;;;;;5065764;28;20021;-69
2022/03/21 08:56:02;;;;;;;17.40;13.13;;;20.40;15.50;;;;;;5067861;28;20028;-68
2022/03/21 08:58:28;;;;;;;15.93;12.07;;;;;;;;;;5070604;28;20024;-66
2022/03/21 09:00:54;;;;;;;17.27;12.35;;;20.10;16.70;;;;;;5068865;28;20107;-70
2022/03/21 09:03:20;;;;;;;17.92;12.75;;;21.10;16.20;;;;;;5061212;28;20141;-69
2022/03/21 09:05:46;;;;;;;16.77;11.68;;;20.60;15.90;;;;;;5064869;28;20104;-68
2022/03/21 09:08:12;;;;;;;15.02;11.45;;;;;;;;;;5068022;28;20111;-69
2022/03/21 09:10:38;;;;;;;15.70;11.77;;;;;;;;;;5071589;28;20086;-67
2022/03/21 09:13:05;;;;;;;16.83;12.68;;;20.10;16.60;;;;;;5068521;28;20024;-68
2022/03/21 09:15:31;;;;;;;15.68;11.68;;;21.60;15.20;;;;;;5069258;28;20469;-67
2022/03/21 09:17:57;;;;;;;16.80;10.73;;;16.20;18.20;;;;;;5069835;28;20039;-68
2022/03/21 09:20:23;;;;;;;15.15;10.52;;;;;;;;;;5070473;28;20035;-68
2022/03/21 09:22:49;;;;;;;14.55;10.45;;;12.60;22.90;;;;;;5070392;28;20086;-70
2022/03/21 09:25:17;;;;;;;17.50;10.40;;;11.10;25.70;;;;;;5059632;28;20031;-68
2022/03/21 09:27:43;;;;;;;14.07;9.77;;;10.50;26.00;;;;;;5069219;28;20024;-68
2022/03/21 09:30:11;;;;;;;15.00;9.77;;;10.40;25.90;;;;;;5068280;28;20074;-69
2022/03/21 09:32:37;;;;;;;16.63;10.23;;;10.50;26.00;;;;;;5065259;28;20036;-67
2022/03/21 09:35:05;;;;;;;15.82;10.30;;;10.50;26.20;;;;;;5069133;28;20033;-68
2022/03/21 09:37:32;;;;;;;15.00;10.13;;;10.40;26.00;;;;;;5066957;28;20028;-67
2022/03/21 09:39:57;;;;;;;14.48;10.20;;;10.20;26.60;;;;;;5069242;28;20514;-67
2022/03/21 09:42:24;;;;;;;13.40;9.60;;;10.20;27.10;;;;;;5066854;28;20123;-68
2022/03/21 09:44:52;;;;;;;18.40;11.27;;;10.30;26.90;;;;;;5064155;28;20120;-68
2022/03/21 09:50:11;;;;;;;14.00;10.15;;;10.40;27.10;;;;;;5069904;28;20073;-70
2022/03/21 09:52:38;;;;;;;15.05;10.02;;;10.50;26.60;;;;;;5063122;28;20127;-68
2022/03/21 09:55:05;;;;;;;16.60;9.93;;;10.20;27.00;;;;;;5066680;28;20031;-68
2022/03/21 09:57:31;;;;;;;17.08;10.77;;;10.30;27.40;;;;;;5070330;28;20044;-68
2022/03/21 09:59:58;;;;;;;17.00;10.25;;;10.30;27.20;;;;;;5070020;28;20028;-70
2022/03/21 10:02:24;;;;;;;15.82;10.05;;;10.50;27.50;;;;;;5072509;28;20077;-66
2022/03/21 10:04:50;;;;;;;16.48;10.23;;;10.40;26.80;;;;;;5073153;28;20475;-68
2022/03/21 10:07:23;;;;;;;15.35;10.52;;;10.30;27.10;;;;;;5070841;28;20032;-69
2022/03/21 10:10:05;;;;;;;16.52;10.50;;;;;;;;;;5064320;28;20029;-70
2022/03/21 10:12:31;;;;;;;16.98;10.35;;;;;;;;;;5068224;28;20021;-68
2022/03/21 10:14:59;;;;;;;15.50;10.07;;;;;;;;;;5071737;28;20025;-68
2022/03/21 10:17:25;;;;;;;13.50;10.02;;;10.40;26.80;;;;;;5072100;28;20028;-69
2022/03/21 10:19:54;;;;;;;14.48;9.82;;;10.30;27.00;;;;;;5068515;28;20021;-68
2022/03/21 10:22:43;;;;;;;16.63;10.60;;;10.30;26.90;;;;;;5054594;28;20119;-67
2022/03/21 10:25:18;;;;;;;15.95;9.88;;;10.60;26.90;;;;;;5070589;28;20036;-69
2022/03/21 10:27:45;;;;;;;16.63;9.95;;;;;;;;;;5067347;28;20025;-68
2022/03/21 10:30:15;;;;;;;16.58;10.10;;;10.70;26.70;;;;;;5072442;28;20086;-68
2022/03/21 10:32:42;;;;;;;16.15;9.27;;;10.70;26.30;;;;;;5073165;28;20044;-68
2022/03/21 10:35:23;;;;;;;15.85;9.48;;;10.60;26.40;;;;;;5075209;28;20099;-69
2022/03/21 10:37:52;;;;;;;14.30;9.35;;;;;;;;;;5074127;28;20111;-68
2022/03/21 10:40:25;;;;;;;14.10;9.32;;;10.70;26.90;;;;;;5075617;28;20028;-68
2022/03/21 10:42:56;;;;;;;14.93;9.43;;;11.20;26.00;;;;;;5073292;28;20033;-68
2022/03/21 10:45:23;;;;;;;13.13;9.63;;;11.10;26.00;;;;;;5072019;28;20115;-69
2022/03/21 10:47:53;;;;;;;16.70;9.75;;;11.00;26.20;;;;;;5067157;28;20488;-68
2022/03/21 10:50:29;;;;;;;15.43;9.60;;;;;;;;;;5054972;28;20017;-68
2022/03/21 10:53:13;;;;;;;14.75;9.82;;;10.90;26.10;;;;;;5054659;28;20029;-69
2022/03/21 10:55:41;;;;;;;16.63;10.07;;;10.90;25.80;;;;;;5067296;28;20491;-68
2022/03/21 10:58:07;;;;;;;17.80;10.82;;;10.90;26.00;;;;;;5074767;28;20067;-69
2022/03/21 11:00:33;;;;;;;16.00;9.35;;;10.90;26.00;;;;;;5072689;28;20024;-68
2022/03/21 11:03:15;;;;;;;16.75;10.82;;;11.10;26.10;;;;;;5080804;28;20116;-68
2022/03/21 11:05:48;;;;;;;17.83;9.95;;;11.10;26.00;;;;;;5074755;28;20020;-69
2022/03/21 11:08:18;;;;;;;14.43;9.85;;;11.00;26.10;;;;;;5072303;28;20473;-65
2022/03/21 11:10:45;;;;;;;15.27;10.27;;;;;;;;;;5057038;28;20029;-67
2022/03/21 11:13:11;;;;;;;15.18;9.98;;;;;;;;;;5070801;28;20028;-66
2022/03/21 11:15:38;;;;;;;13.32;9.20;;;;;;;;;;5063135;28;20032;-69
2022/03/21 11:18:04;;;;;;;16.23;9.60;;;;;;;;;;5072017;28;20029;-68
2022/03/21 11:20:31;;;;;;;14.23;10.02;;;;;;;;;;5062916;28;20044;-69
2022/03/21 11:22:57;;;;;;;14.20;9.75;;;;;;;;;;5070382;28;20392;-67
2022/03/21 11:25:25;;;;;;;16.48;9.95;;;;;;;;;;5072976;28;20032;-67
2022/03/21 11:27:56;;;;;;;14.30;10.23;;;;;;;;;;5062825;28;20024;-68
2022/03/21 11:30:22;;;;;;;12.68;8.30;;;;;;;;;;5071969;28;20384;-68
2022/03/21 11:32:55;;;;;;;16.38;9.45;;;;;;;;;;5070579;28;20068;-69
2022/03/21 11:35:25;;;;;;;12.85;9.07;;;;;;;;;;5069796;28;20496;-69
2022/03/21 11:37:51;;;;;;;13.15;9.32;;;;;;;;;;5067179;28;20484;-68
2022/03/21 11:40:26;;;;;;;35.92;32.13;;;;;;;;;;5086379;22;21265;-72
2022/03/21 11:42:53;;;;;;;15.07;9.52;;;;;;;;;;5019289;28;20486;-71
2022/03/21 11:45:27;;;;;;;14.60;9.85;;;;;;;;;;5021239;28;20516;-71
2022/03/21 11:48:11;;;;;;;12.48;9.20;;;;;;;;;;5033999;28;20136;-71
2022/03/21 11:50:37;;;;;;;13.35;8.70;;;;;;;;;;5034557;28;20366;-71
2022/03/21 11:53:07;;;;;;;14.82;8.60;;;;;;;;;;5032036;28;20025;-71
2022/03/21 11:55:51;;;;;;;13.25;9.18;;;;;;;;;;5010702;28;20497;-65
2022/03/21 11:58:23;;;;;;;14.88;8.82;;;;;;;;;;5026818;28;20029;-66
2022/03/21 12:01:05;;;;;;;14.88;8.43;;;;;;;;;;5031452;28;20040;-71
2022/03/21 12:03:31;;;;;;;11.85;8.68;;;;;;;;;;5026624;28;20103;-70
2022/03/21 12:05:57;;;;;;;13.18;7.72;;;;;;;;;;5034029;28;20522;-71
2022/03/21 12:08:30;;;;;;;12.52;8.00;;;;;;;;;;5030663;28;20025;-70
2022/03/21 12:10:56;;;;;;;12.27;8.45;;;;;;;;;;5033416;28;20049;-72
2022/03/21 12:13:22;;;;;;;13.75;9.05;;;;;;;;;;5035903;28;20381;-69
2022/03/21 12:15:52;;;;;;;12.35;8.25;;;;;;;;;;5027412;28;20030;-70
2022/03/21 12:18:21;;;;;;;12.32;8.10;;;;;;;;;;5034749;28;20045;-71
2022/03/21 12:20:49;;;;;;;11.23;8.25;;;;;;;;;;5040306;28;20083;-70
2022/03/21 12:23:20;;;;;;;11.77;8.25;;;;;;;;;;5036854;28;20389;-72
2022/03/21 12:25:47;;;;;;;12.27;8.68;;;;;;;;;;5032979;28;20025;-71
2022/03/21 12:31:31;;;;;;;11.10;8.75;;;;;;;;;;5030738;28;20052;-71
2022/03/21 12:34:15;;;;;;;12.82;9.13;;;;;;;;;;5018539;28;20049;-74
2022/03/21 12:36:41;;;;;;;15.77;9.93;;;;;;;;;;5033836;28;20032;-72
2022/03/21 12:39:16;;;;;;;14.30;9.77;;;;;;;;;;5034226;28;20430;-71
2022/03/21 12:41:45;;;;;;;14.98;10.18;;;;;;;;;;5039359;28;20116;-71
2022/03/21 12:44:13;;;;;;;12.70;9.55;;;;;;;;;;5042248;28;20063;-71
2022/03/21 12:46:39;;;;;;;12.30;9.60;;;;;;;;;;5032412;28;20111;-72
2022/03/21 12:49:05;;;;;;;14.00;9.82;;;;;;;;;;5031194;28;20052;-71
2022/03/21 12:51:33;;;;;;;16.23;10.25;;;;;;;;;;5030149;28;20025;-72
2022/03/21 12:54:03;;;;;;;15.45;9.98;;;;;;;;;;5031459;28;20382;-71
2022/03/21 12:56:29;;;;;;;14.18;10.18;;;;;;;;;;5030187;28;20030;-72
2022/03/21 12:58:57;;;;;;;14.50;10.13;;;;;;;;;;5042429;28;20044;-70
2022/03/21 13:01:24;;;;;;;15.25;9.77;;;;;;;;;;5036730;28;20037;-69
2022/03/21 13:03:57;;;;;;;14.85;10.55;;;;;;;;;;5030764;28;20109;-70
2022/03/21 13:12:23;;;;;;;14.90;9.88;;;;;;;;;;4916940;29;20131;-70
2022/03/21 13:14:49;;;;;;;16.05;10.38;;;;;;;;;;4996800;28;20038;-70
2022/03/21 13:17:15;;;;;;;15.50;10.85;;;;;;;;;;5037756;28;20103;-70
2022/03/21 13:19:43;;;;;;;17.75;10.55;;;;;;;;;;5034549;28;20025;-70
2022/03/21 13:22:09;;;;;;;15.10;10.10;;;;;;;;;;5036870;28;20029;-70
2022/03/21 13:24:39;;;;;;;16.85;10.70;;;;;;;;;;5016594;28;20030;-69
2022/03/21 13:27:05;;;;;;;16.40;10.45;;;;;;;;;;5017387;28;20111;-70
2022/03/21 13:29:31;;;;;;;14.65;10.50;;;;;;;;;;5033756;28;20025;-70
2022/03/21 13:31:57;;;;;;;14.23;10.60;;;;;;;;;;5030502;28;20028;-71
2022/03/21 13:34:23;;;;;;;15.07;10.45;;;;;;;;;;5029370;28;20018;-70
2022/03/21 13:36:50;;;;;;;17.00;10.05;;;;;;;;;;5047013;28;20104;-70
2022/03/21 13:39:19;;;;;;;16.38;10.52;;;;;;;;;;5043708;28;20459;-70
2022/03/21 13:41:56;;;;;;;16.38;10.88;;;;;;;;;;5044453;28;20036;-70
2022/03/21 13:44:23;;;;;;;16.23;11.25;;;;;;;;;;5041606;28;20044;-70
2022/03/21 13:47:08;;;;;;;17.20;12.05;;;;;;;;;;5038673;28;20025;-70
2022/03/21 13:49:54;;;;;;;15.95;11.00;;;;;;;;;;5031814;28;20021;-71
2022/03/21 13:52:40;;;;;;;13.90;10.20;;;;;;;;;;5031107;28;20385;-70
2022/03/21 13:55:07;;;;;;;17.83;10.73;;;;;;;;;;5047430;28;20116;-72
2022/03/21 13:57:42;;;;;;;13.95;9.60;;;;;;;;;;5034700;28;20022;-70
2022/03/21 14:00:10;;;;;;;13.80;11.05;;;;;;;;;;5035994;28;20022;-70
2022/03/21 14:02:47;;;;;;;14.23;10.00;;;;;;;;;;5034998;28;20026;-71
2022/03/21 14:05:20;;;;;;;14.93;10.23;;;;;;;;;;5037896;28;20038;-71
2022/03/21 14:07:47;;;;;;;15.38;11.23;;;;;;;;;;5045580;28;20088;-70
2022/03/21 14:10:26;;;;;;;14.35;10.52;;;;;;;;;;5044935;28;20029;-70
2022/03/21 14:12:53;;;;;;;15.65;10.55;;;;;;;;;;5025431;28;20018;-71
2022/03/21 14:15:23;;;;;;;17.02;11.30;;;;;;;;;;5036263;28;20393;-70
2022/03/21 14:17:50;;;;;;;16.52;10.85;;;;;;;;;;5045708;28;20059;-70